Time;durP1;ratioP1;P1;durP2;ratioP2;P2;SDS_P1;SDS_P2;PMS_P1;PMS_P2;Temp;Humidity;BMP_temperature;BMP_pressure;BME280_temperature;BME280_humidity;BME280_pressure;Samples;Min_cycle;Max_cycle;Signal;HPM_P1;HPM_P2
2023/04/08 00:00:20;;;;;;;11.43;7.88;;;;;;;4.60;57.65;94855.91;5056545;28;20028;-77
2023/04/08 00:02:46;;;;;;;11.00;8.10;;;;;;;4.63;57.35;94855.75;5071315;28;20036;-77
2023/04/08 00:05:11;;;;;;;8.88;7.85;;;;;;;4.63;57.08;94853.16;5092160;28;20032;-76
2023/04/08 00:07:37;;;;;;;9.70;7.75;;;;;;;4.43;57.76;94836.28;5088941;28;20079;-76
2023/04/08 00:10:03;;;;;;;12.20;9.25;;;;;;;4.44;57.52;94850.84;5087868;28;20035;-77
2023/04/08 00:12:28;;;;;;;11.13;8.10;;;;;;;4.59;58.31;94855.06;5053885;28;20422;-77
2023/04/08 00:14:54;;;;;;;13.02;8.27;;;;;;;4.54;58.05;94866.53;5083315;28;20027;-77
2023/04/08 00:17:20;;;;;;;11.48;8.60;;;;;;;4.35;56.73;94866.81;5087793;28;20039;-76
2023/04/08 00:19:45;;;;;;;13.20;8.70;;;;;;;4.34;57.32;94862.56;5069417;28;20032;-76
2023/04/08 00:22:10;;;;;;;13.10;10.35;;;;;;;4.33;57.62;94856.59;5064113;28;20039;-76
2023/04/08 00:24:36;;;;;;;13.02;9.98;;;;;;;4.33;58.83;94866.06;5067411;28;20477;-77
2023/04/08 00:27:01;;;;;;;13.48;10.57;;;;;;;4.21;58.97;94860.69;5064276;28;20039;-77
2023/04/08 00:29:27;;;;;;;12.63;9.93;;;;;;;4.14;59.71;94861.13;5054967;28;20028;-76
2023/04/08 00:31:53;;;;;;;13.38;10.80;;;;;;;4.11;59.99;94867.28;5065354;28;20032;-76
2023/04/08 00:34:19;;;;;;;15.25;11.45;;;;;;;4.13;60.81;94870.59;5085813;28;20406;-77
2023/04/08 00:36:45;;;;;;;14.60;12.00;;;;;;;4.05;62.11;94874.50;5068608;28;20028;-77
2023/04/08 00:39:11;;;;;;;13.40;10.02;;;;;;;4.02;62.20;94865.22;5049899;28;20020;-77
2023/04/08 00:41:36;;;;;;;14.25;11.05;;;;;;;4.06;61.73;94866.69;5080148;28;20042;-77
2023/04/08 00:44:02;;;;;;;13.98;10.48;;;;;;;4.06;62.34;94874.41;5086359;28;20028;-77
2023/04/08 00:46:29;;;;;;;15.55;11.52;;;;;;;4.10;61.47;94877.66;5089321;28;20036;-77
2023/04/08 00:48:55;;;;;;;13.40;10.05;;;;;;;3.95;62.41;94877.59;5071992;28;20549;-77
2023/04/08 00:51:20;;;;;;;13.63;9.95;;;;;;;3.65;62.60;94851.00;5086689;28;20037;-76
2023/04/08 00:53:46;;;;;;;12.45;10.05;;;;;;;3.86;62.21;94872.13;5079811;28;20391;-76
2023/04/08 00:56:11;;;;;;;13.10;9.63;;;;;;;3.95;62.06;94882.72;5038337;28;20028;-77
2023/04/08 00:58:37;;;;;;;15.27;10.93;;;;;;;3.87;62.01;94886.63;5069862;28;20036;-77
2023/04/08 01:01:06;;;;;;;15.07;11.02;;;;;;;3.87;61.90;94877.19;5071135;28;20039;-77
2023/04/08 01:03:40;;;;;;;13.40;10.30;;;;;;;3.76;61.84;94880.38;5053149;28;20071;-76
2023/04/08 01:06:20;;;;;;;12.30;9.88;;;;;;;3.70;62.45;94867.00;5086165;28;20060;-76
2023/04/08 01:08:45;;;;;;;13.32;9.88;;;;;;;3.81;62.33;94873.22;5100731;28;20417;-77
2023/04/08 01:11:11;;;;;;;11.10;8.95;;;;;;;3.81;62.05;94872.38;5089587;28;20029;-77
2023/04/08 01:13:38;;;;;;;11.75;8.02;;;;;;;3.77;62.03;94861.44;5089783;28;20157;-77
2023/04/08 01:16:04;;;;;;;10.50;8.07;;;;;;;3.81;62.32;94869.81;5089087;28;20445;-76
2023/04/08 01:18:29;;;;;;;11.70;8.48;;;;;;;3.94;61.96;94882.81;5072235;28;20058;-77
2023/04/08 01:20:55;;;;;;;11.02;9.23;;;;;;;4.01;60.95;94884.13;5089341;28;20482;-77
2023/04/08 01:23:49;;;;;;;11.70;9.35;;;;;;;4.09;59.63;94873.41;5067085;28;20021;-77
2023/04/08 01:26:21;;;;;;;11.23;8.70;;;;;;;4.09;59.56;94876.00;5070518;28;20110;-77
2023/04/08 01:28:46;;;;;;;10.52;9.18;;;;;;;4.02;59.55;94875.50;5073037;28;20486;-76
2023/04/08 01:31:11;;;;;;;13.63;9.45;;;;;;;3.96;59.44;94866.41;5101245;28;20141;-76
2023/04/08 01:33:37;;;;;;;13.32;9.35;;;;;;;4.12;59.04;94878.38;5072615;28;20090;-77
2023/04/08 01:36:02;;;;;;;12.63;9.70;;;;;;;4.03;59.17;94872.84;5072739;28;20513;-76
2023/04/08 01:38:29;;;;;;;12.15;9.27;;;;;;;4.15;58.30;94880.78;5066373;28;20117;-76
2023/04/08 01:40:55;;;;;;;11.15;8.88;;;;;;;4.19;58.29;94884.84;5075586;28;20036;-76
2023/04/08 01:43:20;;;;;;;12.88;9.27;;;;;;;4.17;57.98;94860.94;5058509;28;20028;-77
2023/04/08 01:45:46;;;;;;;11.98;8.95;;;;;;;4.18;58.02;94870.31;5092899;28;20028;-77
2023/04/08 01:48:12;;;;;;;13.15;9.40;;;;;;;4.20;58.07;94883.91;5074454;28;20059;-77
2023/04/08 01:50:40;;;;;;;10.52;8.63;;;;;;;4.14;58.40;94884.28;5072100;28;20119;-77
2023/04/08 01:53:05;;;;;;;11.70;9.02;;;;;;;4.12;58.30;94894.63;5077842;28;20032;-77
2023/04/08 01:55:31;;;;;;;15.07;9.63;;;;;;;4.15;58.10;94873.06;5092978;28;20028;-77
2023/04/08 01:57:58;;;;;;;12.05;9.60;;;;;;;4.19;58.25;94883.09;5076116;28;20028;-77
2023/04/08 02:00:25;;;;;;;12.10;9.52;;;;;;;4.16;58.24;94883.28;5072474;28;20085;-77
2023/04/08 02:02:51;;;;;;;12.82;9.60;;;;;;;4.17;58.23;94896.94;5045819;28;20036;-76
2023/04/08 02:05:17;;;;;;;12.48;9.85;;;;;;;4.13;58.28;94888.59;5092550;28;20032;-77
2023/04/08 02:07:44;;;;;;;12.63;9.60;;;;;;;4.19;58.55;94908.00;5093697;28;20047;-77
2023/04/08 02:10:10;;;;;;;11.52;9.45;;;;;;;4.13;58.80;94900.63;5074270;28;20035;-77
2023/04/08 02:12:35;;;;;;;15.18;10.60;;;;;;;4.05;58.55;94883.06;5092852;28;20456;-77
2023/04/08 02:15:00;;;;;;;12.52;9.40;;;;;;;4.16;59.00;94903.84;5075826;28;20036;-77
2023/04/08 02:17:38;;;;;;;13.68;10.13;;;;;;;4.19;59.03;94908.00;5074984;28;20036;-77
2023/04/08 02:20:09;;;;;;;12.35;9.80;;;;;;;4.21;58.56;94885.59;5093248;28;20032;-77
2023/04/08 02:22:42;;;;;;;13.43;9.03;;;;;;;4.18;58.54;94896.88;5075996;28;20036;-77
2023/04/08 02:25:10;;;;;;;12.43;9.70;;;;;;;4.11;58.88;94885.28;5091888;28;20032;-77
2023/04/08 02:27:36;;;;;;;13.20;10.05;;;;;;;4.19;58.84;94900.28;5071842;28;20032;-77
2023/04/08 02:30:05;;;;;;;13.25;9.65;;;;;;;4.16;58.69;94898.69;5074817;28;20047;-77
2023/04/08 02:32:31;;;;;;;14.50;9.82;;;;;;;4.05;58.58;94869.38;5055333;28;20583;-77
2023/04/08 02:34:58;;;;;;;13.68;9.70;;;;;;;4.24;58.52;94895.72;5071994;28;20025;-76
2023/04/08 02:37:24;;;;;;;11.82;9.70;;;;;;;4.20;59.03;94889.06;5069011;28;20040;-77
2023/04/08 02:39:49;;;;;;;15.75;11.00;;;;;;;4.28;59.35;94896.34;5087431;28;20540;-77
2023/04/08 02:42:15;;;;;;;12.55;9.48;;;;;;;4.25;59.71;94897.34;5092206;28;20119;-77
2023/04/08 02:44:40;;;;;;;14.20;10.43;;;;;;;4.03;60.89;94872.03;5088441;28;20094;-76
2023/04/08 02:47:06;;;;;;;12.77;9.95;;;;;;;4.18;60.21;94886.59;5105723;28;20086;-77
2023/04/08 02:49:31;;;;;;;13.38;10.05;;;;;;;4.20;59.79;94901.91;5072997;28;20035;-77
2023/04/08 02:51:57;;;;;;;14.93;9.93;;;;;;;4.18;59.34;94898.59;5054858;28;20032;-77
2023/04/08 02:54:23;;;;;;;12.93;9.82;;;;;;;3.99;60.06;94876.50;5080314;28;20086;-77
2023/04/08 02:56:49;;;;;;;12.82;10.60;;;;;;;3.99;60.42;94902.22;5072509;28;20036;-77
2023/04/08 02:59:14;;;;;;;15.43;10.35;;;;;;;4.03;61.09;94902.88;5072629;28;20035;-77
2023/04/08 03:01:40;;;;;;;16.38;10.88;;;;;;;3.97;61.39;94904.03;5072679;28;20040;-77
2023/04/08 03:04:05;;;;;;;14.85;11.27;;;;;;;3.97;61.38;94901.47;5074023;28;20134;-77
2023/04/08 03:06:31;;;;;;;16.00;11.63;;;;;;;3.78;61.78;94877.69;5091601;28;20052;-77
2023/04/08 03:08:56;;;;;;;15.23;11.10;;;;;;;4.00;61.76;94909.00;5070747;28;20021;-76
2023/04/08 03:11:21;;;;;;;15.15;10.60;;;;;;;3.98;62.32;94908.28;5108690;27;20028;-77
2023/04/08 03:13:47;;;;;;;13.60;10.27;;;;;;;3.99;61.82;94902.22;5091788;28;20020;-76
2023/04/08 03:16:12;;;;;;;15.30;10.07;;;;;;;4.03;62.68;94897.72;5092471;28;20047;-77
2023/04/08 03:18:38;;;;;;;14.05;10.10;;;;;;;3.96;62.63;94902.41;5083627;28;20035;-77
2023/04/08 03:21:03;;;;;;;13.85;9.73;;;;;;;3.98;62.40;94898.00;5054069;28;20105;-77
2023/04/08 03:23:29;;;;;;;14.30;10.13;;;;;;;3.90;61.72;94878.75;5038826;28;20097;-77
2023/04/08 03:25:54;;;;;;;11.77;9.52;;;;;;;4.04;61.06;94896.84;5106615;28;20047;-76
2023/04/08 03:28:20;;;;;;;15.40;9.63;;;;;;;4.02;60.55;94890.94;5090704;28;20035;-77
2023/04/08 03:30:45;;;;;;;13.35;9.95;;;;;;;4.13;60.50;94913.47;5090445;28;20036;-77
2023/04/08 03:33:11;;;;;;;15.57;11.02;;;;;;;4.16;60.49;94903.03;5090145;28;20036;-77
2023/04/08 03:35:37;;;;;;;14.52;10.48;;;;;;;4.11;60.55;94905.03;5091033;28;20054;-77
2023/04/08 03:38:03;;;;;;;13.85;10.68;;;;;;;3.99;60.64;94904.78;5092126;28;20028;-77
2023/04/08 03:40:28;;;;;;;13.77;10.35;;;;;;;4.11;60.52;94905.03;5090746;28;20496;-77
2023/04/08 03:42:54;;;;;;;15.82;10.77;;;;;;;4.05;60.24;94890.75;5073960;28;20032;-77
2023/04/08 03:45:19;;;;;;;14.95;11.10;;;;;;;4.12;59.97;94902.34;5092538;28;20021;-77
2023/04/08 03:47:45;;;;;;;15.57;11.07;;;;;;;4.20;60.52;94904.50;5073755;28;20184;-76
2023/04/08 03:50:10;;;;;;;14.57;10.68;;;;;;;4.09;60.22;94901.69;5090156;28;20468;-76
2023/04/08 03:52:36;;;;;;;13.63;10.18;;;;;;;3.87;61.28;94866.91;5090046;28;20501;-76
2023/04/08 03:55:01;;;;;;;15.45;10.48;;;;;;;4.13;60.36;94903.19;5073729;28;20049;-77
2023/04/08 03:57:27;;;;;;;14.90;11.40;;;;;;;3.98;60.53;94884.28;5073374;28;20097;-77
2023/04/08 03:59:52;;;;;;;15.32;10.52;;;;;;;4.16;60.75;94895.31;5090516;28;20032;-77
2023/04/08 04:02:18;;;;;;;14.63;10.18;;;;;;;4.15;60.30;94901.34;5090431;28;20032;-76
2023/04/08 04:04:43;;;;;;;17.90;11.23;;;;;;;3.97;61.07;94904.03;5089072;28;20494;-76
2023/04/08 04:07:09;;;;;;;15.63;11.00;;;;;;;3.98;61.21;94895.44;5089699;28;20058;-77
2023/04/08 04:09:34;;;;;;;14.20;11.15;;;;;;;3.86;61.90;94869.56;5090340;28;20564;-77
2023/04/08 04:12:00;;;;;;;17.67;12.70;;;;;;;4.02;61.23;94907.19;5090520;28;20036;-77
2023/04/08 04:14:25;;;;;;;20.40;13.32;;;;;;;3.99;61.00;94898.81;5091142;28;20038;-77
2023/04/08 04:16:51;;;;;;;19.88;13.95;;;;;;;3.93;61.46;94902.56;5073516;28;20486;-77
2023/04/08 04:19:17;;;;;;;20.08;15.23;;;;;;;3.96;61.07;94899.81;5072897;28;20089;-77
2023/04/08 04:21:42;;;;;;;18.77;13.00;;;;;;;3.95;61.80;94905.84;5073500;28;20517;-76
2023/04/08 04:24:08;;;;;;;20.35;14.90;;;;;;;3.90;61.12;94913.03;5091110;28;20028;-77
2023/04/08 04:26:33;;;;;;;20.40;13.85;;;;;;;3.79;60.84;94899.94;5091460;28;20024;-76
2023/04/08 04:28:59;;;;;;;15.48;11.80;;;;;;;3.93;60.82;94912.84;5091126;28;20285;-76
2023/04/08 04:31:27;;;;;;;17.83;12.95;;;;;;;3.97;60.84;94908.34;5073345;28;20028;-76
2023/04/08 04:33:53;;;;;;;20.02;14.13;;;;;;;4.00;60.78;94908.19;5073091;28;20119;-77
2023/04/08 04:36:18;;;;;;;17.42;13.43;;;;;;;3.89;60.20;94906.19;5073145;28;20081;-77
2023/04/08 04:38:44;;;;;;;18.30;13.38;;;;;;;3.85;61.44;94917.56;5072615;28;20027;-77
2023/04/08 04:41:10;;;;;;;17.48;12.65;;;;;;;3.86;61.69;94905.56;5089588;28;20043;-77
2023/04/08 04:43:35;;;;;;;16.77;13.02;;;;;;;3.93;60.74;94905.13;5106843;28;20028;-76
2023/04/08 04:46:02;;;;;;;17.67;12.27;;;;;;;3.97;61.79;94904.03;5089726;28;20024;-77
2023/04/08 04:48:28;;;;;;;17.27;13.00;;;;;;;3.92;62.20;94898.31;5072926;28;20028;-76
2023/04/08 04:50:57;;;;;;;17.23;11.43;;;;;;;4.05;63.13;94911.34;5089683;28;20035;-76
2023/04/08 04:53:23;;;;;;;17.25;11.90;;;;;;;4.01;62.83;94895.25;5083906;28;20520;-77
2023/04/08 04:55:49;;;;;;;19.75;15.23;;;;;;;4.11;62.09;94916.13;5070837;28;20028;-76
2023/04/08 04:58:15;;;;;;;17.67;13.60;;;;;;;4.11;62.44;94921.28;5070856;28;20028;-77
2023/04/08 05:00:40;;;;;;;20.88;13.63;;;;;;;4.25;60.83;94917.94;5089816;28;20490;-76
2023/04/08 05:03:05;;;;;;;23.80;15.60;;;;;;;4.23;61.51;94919.75;5093921;28;20032;-77
2023/04/08 05:05:31;;;;;;;20.75;14.13;;;;;;;3.99;61.84;94915.06;5093224;28;20024;-77
2023/04/08 05:07:56;;;;;;;24.75;17.40;;;;;;;4.03;61.41;94919.13;5093386;28;20031;-76
2023/04/08 05:10:31;;;;;;;25.17;16.27;;;;;;;4.09;62.22;94914.56;5076897;28;20039;-76
2023/04/08 05:12:57;;;;;;;21.15;15.80;;;;;;;4.13;62.08;94916.06;5059950;28;20036;-77
2023/04/08 05:15:22;;;;;;;32.38;23.30;;;;;;;3.96;61.39;94884.41;5093538;28;20028;-76
2023/04/08 05:17:48;;;;;;;29.25;20.42;;;;;;;4.07;61.07;94895.81;5094911;28;20504;-77
2023/04/08 05:20:13;;;;;;;38.72;23.40;;;;;;;4.13;61.65;94919.44;5094247;28;20024;-76
2023/04/08 05:22:39;;;;;;;46.58;28.02;;;;;;;4.14;61.66;94925.41;5093774;28;20047;-76
2023/04/08 05:25:05;;;;;;;57.85;32.50;;;;;;;4.28;61.29;94916.94;5075910;28;20020;-76
2023/04/08 05:27:30;;;;;;;54.08;30.58;;;;;;;4.44;60.09;94921.13;5088957;28;20717;-76
2023/04/08 05:29:56;;;;;;;45.58;27.30;;;;;;;4.52;60.04;94919.88;5091572;28;20040;-76
2023/04/08 05:32:21;;;;;;;39.85;25.75;;;;;;;4.42;59.77;94896.38;5106851;28;20020;-76
2023/04/08 05:34:47;;;;;;;53.30;32.20;;;;;;;4.55;60.46;94909.38;5092171;28;20036;-76
2023/04/08 05:37:12;;;;;;;59.63;33.83;;;;;;;4.30;60.89;94885.06;5088995;28;20058;-76
2023/04/08 05:39:38;;;;;;;51.45;29.20;;;;;;;4.62;60.69;94915.81;5071914;28;20036;-76
2023/04/08 05:42:03;;;;;;;41.75;25.58;;;;;;;4.83;60.04;94924.88;5089477;28;20032;-76
2023/04/08 05:44:29;;;;;;;40.33;25.73;;;;;;;4.89;59.73;94927.09;5089806;28;20405;-77
2023/04/08 05:46:56;;;;;;;48.53;31.10;;;;;;;5.00;59.59;94921.31;5071806;28;20042;-77
2023/04/08 05:49:22;;;;;;;43.03;28.05;;;;;;;4.99;59.65;94913.69;5076535;28;20387;-76
2023/04/08 05:51:47;;;;;;;38.95;25.73;;;;;;;5.34;58.59;94920.09;5072690;28;20074;-77
2023/04/08 05:54:12;;;;;;;43.47;25.67;;;;;;;5.44;58.22;94922.16;5071991;28;20041;-77
2023/04/08 05:56:38;;;;;;;42.85;25.45;;;;;;;5.35;58.81;94916.63;5089349;28;20028;-77
2023/04/08 05:59:03;;;;;;;46.13;26.67;;;;;;;5.46;58.35;94913.41;5088546;28;20036;-77
2023/04/08 06:01:29;;;;;;;36.08;23.00;;;;;;;5.38;57.60;94906.13;5072288;28;20039;-77
2023/04/08 06:03:55;;;;;;;35.80;24.15;;;;;;;5.31;58.11;94910.00;5093363;28;20023;-77
2023/04/08 06:06:21;;;;;;;39.90;25.23;;;;;;;5.44;58.34;94917.00;5088212;28;20055;-77
2023/04/08 06:08:47;;;;;;;37.50;25.20;;;;;;;5.32;58.82;94900.50;5088274;28;20454;-77
2023/04/08 06:11:12;;;;;;;54.05;29.05;;;;;;;5.55;58.83;94914.59;5087344;28;20105;-77
2023/04/08 06:13:38;;;;;;;66.93;39.15;;;;;;;5.69;58.23;94918.91;5086700;28;20109;-77
2023/04/08 06:16:13;;;;;;;41.42;27.00;;;;;;;5.52;58.34;94905.28;5085918;28;20089;-76
2023/04/08 06:18:38;;;;;;;52.85;28.80;;;;;;;5.59;58.51;94903.16;5087638;28;20107;-77
2023/04/08 06:21:04;;;;;;;44.70;25.35;;;;;;;5.66;58.40;94917.34;5070456;28;20048;-77
2023/04/08 06:23:30;;;;;;;46.00;26.85;;;;;;;5.56;58.30;94911.91;5087486;28;20032;-77
2023/04/08 06:25:56;;;;;;;40.95;23.55;;;;;;;5.59;58.17;94916.88;5086635;28;20036;-77
2023/04/08 06:28:21;;;;;;;48.20;25.08;;;;;;;5.73;58.30;94916.00;5071632;28;20024;-77
2023/04/08 06:30:47;;;;;;;45.20;30.20;;;;;;;5.79;57.69;94905.34;5088489;28;20046;-77
2023/04/08 06:33:12;;;;;;;32.92;22.33;;;;;;;6.10;56.85;94915.47;5089068;28;20077;-77
2023/04/08 06:35:37;;;;;;;31.45;21.08;;;;;;;6.29;55.91;94928.03;5089782;28;20497;-77
2023/04/08 06:38:03;;;;;;;57.63;30.75;;;;;;;6.31;56.23;94915.88;5084637;28;20501;-74
2023/04/08 06:40:29;;;;;;;30.23;18.50;;;;;;;6.44;55.29;94921.91;5089970;28;20062;-76
2023/04/08 06:42:55;;;;;;;34.85;23.65;;;;;;;6.51;55.80;94925.72;5090240;28;20036;-80
2023/04/08 06:45:20;;;;;;;36.20;26.08;;;;;;;6.70;55.69;94923.59;5070529;28;20027;-77
2023/04/08 06:47:46;;;;;;;33.85;21.05;;;;;;;6.68;55.16;94909.13;5093578;28;20032;-77
2023/04/08 06:50:11;;;;;;;35.17;22.67;;;;;;;6.95;55.16;94921.97;5091889;28;20024;-77
2023/04/08 06:52:37;;;;;;;35.08;22.70;;;;;;;6.90;55.27;94898.22;5092589;28;20093;-79
2023/04/08 06:55:02;;;;;;;34.97;20.30;;;;;;;7.15;54.74;94913.72;5091335;28;20028;-76
2023/04/08 06:57:28;;;;;;;30.58;19.55;;;;;;;7.28;54.51;94916.28;5089357;28;20089;-74
2023/04/08 06:59:53;;;;;;;32.35;19.83;;;;;;;7.42;54.17;94920.53;5070794;28;20032;-75
2023/04/08 07:02:21;;;;;;;34.83;21.75;;;;;;;7.37;54.53;94922.59;5085537;28;20512;-79
2023/04/08 07:04:47;;;;;;;32.38;20.90;;;;;;;7.43;54.54;94913.59;5090053;28;20027;-79
2023/04/08 07:07:12;;;;;;;36.47;23.27;;;;;;;6.85;54.61;94822.78;5089942;28;20048;-79
2023/04/08 07:09:38;;;;;;;34.53;21.45;;;;;;;7.02;54.34;94819.91;5088806;28;20436;-79
2023/04/08 07:12:04;;;;;;;37.17;20.83;;;;;;;7.77;54.20;94912.91;5091510;28;20530;-80
2023/04/08 07:14:30;;;;;;;31.58;19.42;;;;;;;7.87;53.81;94907.91;5090092;28;20101;-79
2023/04/08 07:16:55;;;;;;;26.95;17.85;;;;;;;7.48;52.81;94829.63;5056523;28;20039;-79
2023/04/08 07:19:23;;;;;;;28.90;19.98;;;;;;;8.05;53.17;94919.56;5071164;28;20474;-71
2023/04/08 07:21:48;;;;;;;34.33;21.73;;;;;;;8.15;53.78;94909.34;5088211;28;20032;-75
2023/04/08 07:24:14;;;;;;;40.42;21.98;;;;;;;8.24;53.41;94920.81;5089435;28;20460;-75
2023/04/08 07:26:40;;;;;;;37.45;21.60;;;;;;;8.35;52.78;94931.22;5089424;28;20067;-77
2023/04/08 07:29:06;;;;;;;36.65;20.63;;;;;;;8.29;52.50;94922.13;5092349;28;20068;-75
2023/04/08 07:31:31;;;;;;;28.00;19.67;;;;;;;8.49;52.36;94927.66;5087140;28;20506;-77
2023/04/08 07:33:58;;;;;;;30.83;19.63;;;;;;;8.67;52.28;94925.50;5072260;28;20035;-77
2023/04/08 07:36:23;;;;;;;31.77;19.90;;;;;;;8.64;51.61;94892.06;5089552;28;20020;-77
2023/04/08 07:38:49;;;;;;;33.47;20.90;;;;;;;8.80;52.06;94931.41;5068882;28;20104;-79
2023/04/08 07:41:14;;;;;;;38.88;21.42;;;;;;;8.82;50.92;94928.72;5087410;28;20480;-74
2023/04/08 07:43:40;;;;;;;32.65;19.90;;;;;;;8.80;51.52;94915.88;5088052;28;20027;-78
2023/04/08 07:46:05;;;;;;;35.15;21.02;;;;;;;8.89;51.39;94907.44;5072393;28;20032;-78
2023/04/08 07:48:31;;;;;;;27.75;18.52;;;;;;;9.09;50.11;94946.56;5087527;28;20406;-78
2023/04/08 07:50:57;;;;;;;31.38;19.10;;;;;;;9.16;49.99;94927.88;5088984;28;20028;-77
2023/04/08 07:53:25;;;;;;;36.85;19.80;;;;;;;9.08;49.97;94935.38;5088319;28;20024;-78
2023/04/08 07:55:50;;;;;;;35.67;20.38;;;;;;;8.68;50.08;94891.69;5070161;28;20032;-78
2023/04/08 07:58:16;;;;;;;33.38;19.20;;;;;;;9.09;50.21;94943.97;5088250;28;20028;-78
2023/04/08 08:00:41;;;;;;;42.88;25.73;;;;;;;9.22;50.08;94929.16;5089487;28;20036;-78
2023/04/08 08:03:07;;;;;;;36.90;21.92;;;;;;;9.30;49.96;94942.34;5088842;28;20114;-78
2023/04/08 08:05:32;;;;;;;42.47;25.23;;;;;;;9.39;49.92;94949.44;5087228;28;20020;-77
2023/04/08 08:07:58;;;;;;;35.92;20.92;;;;;;;9.18;49.23;94907.81;5054813;28;20044;-80
2023/04/08 08:10:23;;;;;;;33.05;19.95;;;;;;;9.33;49.29;94934.38;5089658;28;20451;-77
2023/04/08 08:12:49;;;;;;;29.83;17.75;;;;;;;9.38;48.83;94950.38;5070078;28;20068;-75
2023/04/08 08:15:14;;;;;;;33.15;21.35;;;;;;;9.39;49.16;94949.44;5087565;28;20031;-78
2023/04/08 08:17:40;;;;;;;36.97;24.48;;;;;;;9.74;49.38;94952.88;5089274;28;20024;-78
2023/04/08 08:20:06;;;;;;;45.42;27.38;;;;;;;9.81;48.63;94954.88;5089768;28;20024;-77
2023/04/08 08:22:32;;;;;;;32.30;20.75;;;;;;;9.76;48.15;94935.41;5085873;28;20036;-75
2023/04/08 08:24:58;;;;;;;35.70;22.45;;;;;;;9.84;48.48;94928.69;5086204;28;20070;-77
2023/04/08 08:27:23;;;;;;;30.40;19.80;;;;;;;9.89;47.46;94930.94;5091225;28;20032;-77
2023/04/08 08:29:49;;;;;;;30.88;21.20;;;;;;;9.61;47.31;94903.69;5091779;28;20035;-77
2023/04/08 08:32:15;;;;;;;26.80;17.75;;;;;;;9.87;47.29;94944.97;5090659;28;20035;-77
2023/04/08 08:34:40;;;;;;;28.95;19.27;;;;;;;9.85;47.49;94925.13;5087980;28;20085;-77
2023/04/08 08:37:06;;;;;;;34.75;21.38;;;;;;;10.10;47.51;94958.72;5072084;28;20032;-77
2023/04/08 08:39:32;;;;;;;31.35;19.92;;;;;;;10.15;47.09;94960.03;5107027;28;20031;-77
2023/04/08 08:41:57;;;;;;;30.25;19.55;;;;;;;10.29;46.90;94957.19;5090026;28;20174;-77
2023/04/08 08:44:23;;;;;;;26.90;18.13;;;;;;;10.11;47.39;94935.22;5089310;28;20421;-77
2023/04/08 08:46:48;;;;;;;30.95;21.58;;;;;;;10.12;46.94;94939.50;5088055;28;20494;-77
2023/04/08 08:49:14;;;;;;;27.83;17.42;;;;;;;10.07;46.57;94931.25;5088224;28;20490;-81
2023/04/08 08:51:40;;;;;;;30.80;16.67;;;;;;;10.24;46.37;94966.25;5088581;28;20036;-79
2023/04/08 08:54:07;;;;;;;27.55;18.27;;;;;;;10.18;47.74;94939.00;5088113;28;20502;-78
2023/04/08 08:56:33;;;;;;;36.45;22.73;;;;;;;10.10;49.14;94969.13;5071360;28;20028;-75
2023/04/08 08:58:58;;;;;;;42.22;27.17;;;;;;;10.20;49.37;94962.28;5090412;28;20112;-75
2023/04/08 09:01:42;;;;;;;44.33;29.77;;;;;;;10.10;50.39;94962.16;5089777;28;20047;-74
2023/04/08 09:04:18;;;;;;;36.35;23.73;;;;;;;10.24;51.08;94980.06;5089667;28;20024;-75
2023/04/08 09:07:07;;;;;;;29.20;19.50;;;;;;;10.07;50.46;94963.22;5089355;28;20048;-74
2023/04/08 09:09:50;;;;;;;34.80;23.20;;;;;;;9.85;51.19;94925.13;5090301;28;20054;-74
2023/04/08 09:12:15;;;;;;;36.58;26.13;;;;;;;10.08;50.32;94948.47;5089596;28;20020;-74
2023/04/08 09:14:41;;;;;;;27.27;18.63;;;;;;;10.18;49.55;94977.13;5089725;28;20047;-74
2023/04/08 09:17:06;;;;;;;30.27;20.02;;;;;;;10.27;49.16;94979.84;5089677;28;20036;-75
2023/04/08 09:19:31;;;;;;;30.80;20.63;;;;;;;10.36;49.23;94972.28;5072632;28;20062;-74
2023/04/08 09:22:06;;;;;;;27.00;19.33;;;;;;;10.34;49.26;94958.59;5072825;28;20071;-75
2023/04/08 09:24:32;;;;;;;26.15;17.20;;;;;;;10.37;49.03;94966.16;5089637;28;20409;-75
2023/04/08 09:26:58;;;;;;;29.98;18.70;;;;;;;10.39;49.28;94948.66;5072816;28;20028;-75
2023/04/08 09:29:25;;;;;;;24.73;16.10;;;;;;;10.63;48.53;94966.66;5072731;28;20043;-75
2023/04/08 09:31:58;;;;;;;30.52;20.15;;;;;;;10.63;48.83;94951.88;5089457;28;20028;-75
2023/04/08 09:34:23;;;;;;;24.35;15.98;;;;;;;10.44;48.88;94962.09;5072653;28;20105;-75
2023/04/08 09:36:50;;;;;;;29.23;18.45;;;;;;;10.51;48.60;94932.94;5089528;28;20494;-74
2023/04/08 09:39:15;;;;;;;24.15;16.25;;;;;;;10.59;48.95;94955.69;5089501;28;20504;-75
2023/04/08 09:41:41;;;;;;;26.65;18.25;;;;;;;10.91;48.56;94949.66;5089356;28;20044;-75
2023/04/08 09:44:09;;;;;;;28.17;17.23;;;;;;;11.12;48.23;94926.28;5072409;28;20029;-74
2023/04/08 09:46:46;;;;;;;23.13;15.40;;;;;;;10.74;47.66;94944.03;5090031;28;20104;-74
2023/04/08 09:49:25;;;;;;;23.55;15.38;;;;;;;11.01;47.92;94940.16;5091817;28;20036;-75
2023/04/08 09:52:06;;;;;;;24.55;16.45;;;;;;;11.23;47.51;94939.19;5061404;28;20504;-75
2023/04/08 09:54:55;;;;;;;24.35;16.60;;;;;;;10.97;47.91;94936.13;5092846;28;20436;-75
2023/04/08 09:57:32;;;;;;;22.25;14.80;;;;;;;10.52;48.58;94942.34;5077576;28;20043;-76
2023/04/08 10:00:12;;;;;;;22.08;14.90;;;;;;;10.55;47.99;94935.28;5092853;28;20028;-78
2023/04/08 10:02:51;;;;;;;21.10;13.98;;;;;;;10.64;48.28;94929.31;5092800;28;20039;-76
2023/04/08 10:05:17;;;;;;;25.38;14.77;;;;;;;11.06;48.00;94922.41;5092972;28;20486;-75
2023/04/08 10:07:42;;;;;;;23.13;14.73;;;;;;;10.88;46.70;94893.53;5093778;28;20050;-77
2023/04/08 10:10:10;;;;;;;21.65;14.57;;;;;;;11.06;47.86;94896.41;5075891;28;20486;-77
2023/04/08 10:12:36;;;;;;;25.80;16.75;;;;;;;11.30;48.08;94918.69;5076143;28;20478;-77
2023/04/08 10:15:33;;;;;;;27.55;16.63;;;;;;;11.45;47.76;94921.78;5094263;28;20115;-77
2023/04/08 10:18:04;;;;;;;21.00;13.77;;;;;;;10.89;46.07;94921.19;5092951;28;20032;-77
2023/04/08 10:20:33;;;;;;;21.00;13.10;;;;;;;10.85;46.69;94917.19;5094284;28;20073;-77
2023/04/08 10:22:58;;;;;;;21.33;13.98;;;;;;;10.87;47.60;94889.31;5093807;28;20581;-77
2023/04/08 10:25:43;;;;;;;23.75;15.07;;;;;;;10.46;47.54;94823.38;5075524;28;20055;-77
2023/04/08 10:28:16;;;;;;;25.05;14.07;;;;;;;11.07;47.33;94921.44;5075786;28;20035;-77
2023/04/08 10:30:46;;;;;;;19.33;13.13;;;;;;;11.12;47.08;94916.69;5087462;28;20132;-76
2023/04/08 10:33:31;;;;;;;20.50;12.88;;;;;;;10.68;46.62;94921.16;5073435;28;20035;-77
2023/04/08 10:36:08;;;;;;;21.63;13.50;;;;;;;10.72;47.05;94914.75;5075577;28;20074;-77
2023/04/08 10:38:33;;;;;;;18.50;13.18;;;;;;;10.85;47.09;94906.78;5090093;28;20024;-77
2023/04/08 10:40:59;;;;;;;23.70;14.90;;;;;;;11.11;46.67;94907.22;5074682;28;20412;-77
2023/04/08 10:43:25;;;;;;;23.67;14.70;;;;;;;10.92;47.01;94874.16;5067499;28;20028;-75
2023/04/08 10:45:52;;;;;;;21.92;14.02;;;;;;;10.75;48.88;94898.09;5036766;28;20032;-76
2023/04/08 10:48:18;;;;;;;22.10;13.55;;;;;;;10.61;49.85;94909.63;5055288;28;20311;-76
2023/04/08 10:50:51;;;;;;;18.58;12.73;;;;;;;10.32;49.39;94883.41;5069801;28;20123;-73
2023/04/08 10:53:17;;;;;;;15.95;11.02;;;;;;;10.17;46.92;94914.00;5060943;28;20043;-74
2023/04/08 10:55:42;;;;;;;21.83;13.70;;;;;;;10.40;48.87;94898.38;5036746;28;20040;-74
2023/04/08 10:58:08;;;;;;;19.67;13.93;;;;;;;10.10;48.49;94860.91;5064093;28;20023;-74
2023/04/08 11:00:34;;;;;;;19.45;12.80;;;;;;;10.46;48.22;94900.47;5088193;28;20126;-75
2023/04/08 11:03:01;;;;;;;19.70;13.25;;;;;;;9.93;48.44;94902.97;5088023;28;20529;-74
2023/04/08 11:05:27;;;;;;;18.20;11.95;;;;;;;9.85;47.79;94881.03;5074839;28;20032;-75
2023/04/08 11:07:53;;;;;;;21.40;13.27;;;;;;;10.17;48.09;94898.44;5069083;28;20039;-74
2023/04/08 11:10:19;;;;;;;16.52;11.15;;;;;;;9.98;45.62;94869.69;5052718;28;20037;-74
2023/04/08 11:12:44;;;;;;;15.23;10.25;;;;;;;10.00;46.41;94888.53;5069475;28;20113;-74
2023/04/08 11:15:10;;;;;;;16.00;10.27;;;;;;;9.99;47.12;94881.72;5068784;28;20044;-74
2023/04/08 11:17:36;;;;;;;15.95;10.63;;;;;;;10.05;46.36;94889.00;5069625;28;20033;-74
2023/04/08 11:20:05;;;;;;;15.10;10.70;;;;;;;9.70;46.68;94848.53;5052887;28;20039;-74
2023/04/08 11:22:32;;;;;;;17.83;10.90;;;;;;;10.07;46.04;94887.13;5053029;28;20036;-74